sensor_id;sensor_type;location;lat;lon;timestamp;P1;durP1;ratioP1;P2;durP2;ratioP2
44862;SDS011;30597;49.628;10.850;2023-08-20T00:00:28;231.77;;;164.20;;
44862;SDS011;30597;49.628;10.850;2023-08-20T00:03:04;234.03;;;171.83;;
44862;SDS011;30597;49.628;10.850;2023-08-20T00:05:37;257.03;;;173.10;;
44862;SDS011;30597;49.628;10.850;2023-08-20T00:08:03;239.27;;;170.80;;
44862;SDS011;30597;49.628;10.850;2023-08-20T00:10:29;242.07;;;168.03;;
44862;SDS011;30597;49.628;10.850;2023-08-20T00:12:56;230.23;;;162.23;;
44862;SDS011;30597;49.628;10.850;2023-08-20T00:15:21;232.93;;;170.43;;
44862;SDS011;30597;49.628;10.850;2023-08-20T00:17:51;224.03;;;163.97;;
44862;SDS011;30597;49.628;10.850;2023-08-20T00:20:17;230.97;;;162.10;;
44862;SDS011;30597;49.628;10.850;2023-08-20T00:22:44;233.63;;;169.00;;
44862;SDS011;30597;49.628;10.850;2023-08-20T00:25:12;226.17;;;164.93;;
44862;SDS011;30597;49.628;10.850;2023-08-20T00:27:39;224.53;;;163.27;;
44862;SDS011;30597;49.628;10.850;2023-08-20T00:30:05;237.50;;;165.47;;
44862;SDS011;30597;49.628;10.850;2023-08-20T00:32:32;223.43;;;156.57;;
44862;SDS011;30597;49.628;10.850;2023-08-20T00:34:57;215.90;;;160.07;;
44862;SDS011;30597;49.628;10.850;2023-08-20T00:37:23;220.00;;;157.43;;
44862;SDS011;30597;49.628;10.850;2023-08-20T00:39:48;222.80;;;163.03;;
44862;SDS011;30597;49.628;10.850;2023-08-20T00:42:14;221.17;;;159.77;;
44862;SDS011;30597;49.628;10.850;2023-08-20T00:44:40;208.43;;;153.87;;
44862;SDS011;30597;49.628;10.850;2023-08-20T00:47:09;224.60;;;161.37;;
44862;SDS011;30597;49.628;10.850;2023-08-20T00:49:35;228.17;;;159.60;;
44862;SDS011;30597;49.628;10.850;2023-08-20T00:52:01;227.57;;;160.70;;
44862;SDS011;30597;49.628;10.850;2023-08-20T00:54:28;210.80;;;156.33;;
44862;SDS011;30597;49.628;10.850;2023-08-20T00:56:56;217.97;;;160.80;;
44862;SDS011;30597;49.628;10.850;2023-08-20T00:59:24;207.50;;;154.93;;
44862;SDS011;30597;49.628;10.850;2023-08-20T01:01:50;218.33;;;162.60;;
44862;SDS011;30597;49.628;10.850;2023-08-20T01:04:16;220.10;;;160.63;;
44862;SDS011;30597;49.628;10.850;2023-08-20T01:06:48;217.67;;;161.10;;
44862;SDS011;30597;49.628;10.850;2023-08-20T01:12:12;198.83;;;150.97;;
44862;SDS011;30597;49.628;10.850;2023-08-20T01:14:38;203.17;;;154.20;;
44862;SDS011;30597;49.628;10.850;2023-08-20T01:17:04;218.23;;;155.43;;
44862;SDS011;30597;49.628;10.850;2023-08-20T01:19:30;202.80;;;149.07;;
44862;SDS011;30597;49.628;10.850;2023-08-20T01:30:15;211.23;;;154.20;;
44862;SDS011;30597;49.628;10.850;2023-08-20T01:32:41;222.50;;;156.47;;
44862;SDS011;30597;49.628;10.850;2023-08-20T01:35:11;213.50;;;150.33;;
44862;SDS011;30597;49.628;10.850;2023-08-20T01:37:40;217.97;;;154.40;;
44862;SDS011;30597;49.628;10.850;2023-08-20T01:40:06;211.70;;;154.93;;
44862;SDS011;30597;49.628;10.850;2023-08-20T01:42:39;204.07;;;150.57;;
44862;SDS011;30597;49.628;10.850;2023-08-20T01:45:05;205.00;;;156.10;;
44862;SDS011;30597;49.628;10.850;2023-08-20T01:47:32;210.10;;;150.23;;
44862;SDS011;30597;49.628;10.850;2023-08-20T01:49:58;202.33;;;149.87;;
44862;SDS011;30597;49.628;10.850;2023-08-20T01:52:24;203.47;;;148.97;;
44862;SDS011;30597;49.628;10.850;2023-08-20T01:54:50;195.67;;;150.20;;
44862;SDS011;30597;49.628;10.850;2023-08-20T01:57:16;196.07;;;146.77;;
44862;SDS011;30597;49.628;10.850;2023-08-20T01:59:42;195.70;;;147.43;;
44862;SDS011;30597;49.628;10.850;2023-08-20T02:02:07;200.80;;;151.27;;
44862;SDS011;30597;49.628;10.850;2023-08-20T02:04:33;206.70;;;149.87;;
44862;SDS011;30597;49.628;10.850;2023-08-20T02:06:59;205.53;;;147.57;;
44862;SDS011;30597;49.628;10.850;2023-08-20T02:09:24;196.13;;;146.43;;
44862;SDS011;30597;49.628;10.850;2023-08-20T02:11:50;192.00;;;145.30;;
44862;SDS011;30597;49.628;10.850;2023-08-20T02:14:16;199.50;;;147.13;;
44862;SDS011;30597;49.628;10.850;2023-08-20T02:16:42;192.40;;;144.77;;
44862;SDS011;30597;49.628;10.850;2023-08-20T02:19:07;202.00;;;145.63;;
44862;SDS011;30597;49.628;10.850;2023-08-20T02:21:33;199.77;;;146.50;;
44862;SDS011;30597;49.628;10.850;2023-08-20T02:23:59;189.93;;;142.13;;
44862;SDS011;30597;49.628;10.850;2023-08-20T02:26:24;189.47;;;142.40;;
44862;SDS011;30597;49.628;10.850;2023-08-20T02:28:50;193.27;;;144.67;;
44862;SDS011;30597;49.628;10.850;2023-08-20T02:31:15;191.47;;;144.07;;
44862;SDS011;30597;49.628;10.850;2023-08-20T02:33:41;191.43;;;142.10;;
44862;SDS011;30597;49.628;10.850;2023-08-20T02:36:06;192.60;;;143.13;;
44862;SDS011;30597;49.628;10.850;2023-08-20T02:38:32;192.77;;;141.67;;
44862;SDS011;30597;49.628;10.850;2023-08-20T02:40:58;194.57;;;142.87;;
44862;SDS011;30597;49.628;10.850;2023-08-20T02:43:23;184.50;;;138.50;;
44862;SDS011;30597;49.628;10.850;2023-08-20T02:45:49;191.53;;;143.57;;
44862;SDS011;30597;49.628;10.850;2023-08-20T02:48:15;195.27;;;142.20;;
44862;SDS011;30597;49.628;10.850;2023-08-20T02:50:41;197.97;;;141.17;;
44862;SDS011;30597;49.628;10.850;2023-08-20T02:53:06;197.67;;;143.73;;
44862;SDS011;30597;49.628;10.850;2023-08-20T02:55:32;190.83;;;141.43;;
44862;SDS011;30597;49.628;10.850;2023-08-20T02:57:58;190.70;;;144.93;;
44862;SDS011;30597;49.628;10.850;2023-08-20T03:00:24;191.43;;;140.57;;
44862;SDS011;30597;49.628;10.850;2023-08-20T03:02:49;191.60;;;145.07;;
44862;SDS011;30597;49.628;10.850;2023-08-20T03:05:15;184.50;;;140.00;;
44862;SDS011;30597;49.628;10.850;2023-08-20T03:07:40;187.03;;;140.53;;
44862;SDS011;30597;49.628;10.850;2023-08-20T03:10:06;182.77;;;137.70;;
44862;SDS011;30597;49.628;10.850;2023-08-20T03:12:32;188.93;;;138.63;;
44862;SDS011;30597;49.628;10.850;2023-08-20T03:14:58;178.00;;;138.77;;
44862;SDS011;30597;49.628;10.850;2023-08-20T03:17:24;180.93;;;134.43;;
44862;SDS011;30597;49.628;10.850;2023-08-20T03:19:54;179.70;;;135.60;;
44862;SDS011;30597;49.628;10.850;2023-08-20T03:22:21;186.80;;;137.70;;
44862;SDS011;30597;49.628;10.850;2023-08-20T03:24:47;177.20;;;136.73;;
44862;SDS011;30597;49.628;10.850;2023-08-20T03:27:12;177.50;;;136.23;;
44862;SDS011;30597;49.628;10.850;2023-08-20T03:29:38;178.03;;;133.67;;
44862;SDS011;30597;49.628;10.850;2023-08-20T03:32:03;177.77;;;131.87;;
44862;SDS011;30597;49.628;10.850;2023-08-20T03:34:29;169.00;;;131.77;;
44862;SDS011;30597;49.628;10.850;2023-08-20T03:36:56;172.10;;;133.97;;
44862;SDS011;30597;49.628;10.850;2023-08-20T03:39:22;176.07;;;131.67;;
44862;SDS011;30597;49.628;10.850;2023-08-20T03:41:47;167.73;;;131.63;;
44862;SDS011;30597;49.628;10.850;2023-08-20T03:44:15;178.93;;;132.03;;
44862;SDS011;30597;49.628;10.850;2023-08-20T03:46:40;178.33;;;133.20;;
44862;SDS011;30597;49.628;10.850;2023-08-20T03:49:06;184.40;;;135.17;;
44862;SDS011;30597;49.628;10.850;2023-08-20T03:51:31;164.87;;;128.27;;
44862;SDS011;30597;49.628;10.850;2023-08-20T03:53:57;183.50;;;133.97;;
44862;SDS011;30597;49.628;10.850;2023-08-20T03:56:22;174.70;;;128.47;;
44862;SDS011;30597;49.628;10.850;2023-08-20T03:58:48;170.83;;;133.63;;
44862;SDS011;30597;49.628;10.850;2023-08-20T04:01:13;173.90;;;129.90;;
44862;SDS011;30597;49.628;10.850;2023-08-20T04:03:39;165.70;;;127.83;;
44862;SDS011;30597;49.628;10.850;2023-08-20T04:06:04;176.17;;;133.33;;
44862;SDS011;30597;49.628;10.850;2023-08-20T04:08:30;164.87;;;128.27;;
44862;SDS011;30597;49.628;10.850;2023-08-20T04:10:55;190.70;;;134.50;;
44862;SDS011;30597;49.628;10.850;2023-08-20T04:13:21;172.43;;;131.10;;
44862;SDS011;30597;49.628;10.850;2023-08-20T04:15:46;171.23;;;132.60;;
44862;SDS011;30597;49.628;10.850;2023-08-20T04:18:12;168.80;;;132.00;;
44862;SDS011;30597;49.628;10.850;2023-08-20T04:20:38;163.80;;;125.37;;
44862;SDS011;30597;49.628;10.850;2023-08-20T04:23:03;183.67;;;129.37;;
44862;SDS011;30597;49.628;10.850;2023-08-20T04:25:29;168.97;;;123.17;;
44862;SDS011;30597;49.628;10.850;2023-08-20T04:27:54;177.37;;;128.33;;
44862;SDS011;30597;49.628;10.850;2023-08-20T04:30:20;164.27;;;125.63;;
44862;SDS011;30597;49.628;10.850;2023-08-20T04:32:46;169.73;;;128.40;;
44862;SDS011;30597;49.628;10.850;2023-08-20T04:35:11;163.67;;;123.40;;
44862;SDS011;30597;49.628;10.850;2023-08-20T04:37:37;172.40;;;127.90;;
44862;SDS011;30597;49.628;10.850;2023-08-20T04:40:02;168.30;;;124.67;;
44862;SDS011;30597;49.628;10.850;2023-08-20T04:42:30;166.03;;;125.23;;
44862;SDS011;30597;49.628;10.850;2023-08-20T04:44:56;166.70;;;124.93;;
44862;SDS011;30597;49.628;10.850;2023-08-20T04:47:22;167.33;;;128.30;;
44862;SDS011;30597;49.628;10.850;2023-08-20T04:49:47;159.80;;;125.47;;
44862;SDS011;30597;49.628;10.850;2023-08-20T04:52:13;159.60;;;121.70;;
44862;SDS011;30597;49.628;10.850;2023-08-20T04:54:38;168.23;;;124.40;;
44862;SDS011;30597;49.628;10.850;2023-08-20T04:57:04;160.97;;;122.47;;
44862;SDS011;30597;49.628;10.850;2023-08-20T04:59:29;161.60;;;124.30;;
44862;SDS011;30597;49.628;10.850;2023-08-20T05:01:55;162.20;;;120.87;;
44862;SDS011;30597;49.628;10.850;2023-08-20T05:04:20;170.83;;;125.00;;
44862;SDS011;30597;49.628;10.850;2023-08-20T05:06:46;164.53;;;123.60;;
44862;SDS011;30597;49.628;10.850;2023-08-20T05:09:11;153.67;;;120.73;;
44862;SDS011;30597;49.628;10.850;2023-08-20T05:11:37;159.13;;;124.47;;
44862;SDS011;30597;49.628;10.850;2023-08-20T05:14:03;160.93;;;122.40;;
44862;SDS011;30597;49.628;10.850;2023-08-20T05:16:28;152.80;;;120.93;;
44862;SDS011;30597;49.628;10.850;2023-08-20T05:18:54;160.33;;;116.03;;
44862;SDS011;30597;49.628;10.850;2023-08-20T05:21:19;159.27;;;122.37;;
44862;SDS011;30597;49.628;10.850;2023-08-20T05:23:45;157.33;;;122.57;;
44862;SDS011;30597;49.628;10.850;2023-08-20T05:26:10;160.20;;;121.87;;
44862;SDS011;30597;49.628;10.850;2023-08-20T05:28:36;159.07;;;119.30;;
44862;SDS011;30597;49.628;10.850;2023-08-20T05:31:01;157.13;;;120.23;;
44862;SDS011;30597;49.628;10.850;2023-08-20T05:33:27;162.33;;;119.27;;
44862;SDS011;30597;49.628;10.850;2023-08-20T05:35:53;158.07;;;121.50;;
44862;SDS011;30597;49.628;10.850;2023-08-20T05:38:18;156.47;;;119.87;;
44862;SDS011;30597;49.628;10.850;2023-08-20T05:40:44;163.07;;;122.73;;
44862;SDS011;30597;49.628;10.850;2023-08-20T05:43:09;154.03;;;118.67;;
44862;SDS011;30597;49.628;10.850;2023-08-20T05:45:35;155.33;;;116.97;;
44862;SDS011;30597;49.628;10.850;2023-08-20T05:48:01;156.10;;;121.87;;
44862;SDS011;30597;49.628;10.850;2023-08-20T05:50:26;159.17;;;119.87;;
44862;SDS011;30597;49.628;10.850;2023-08-20T05:52:52;155.77;;;118.53;;
44862;SDS011;30597;49.628;10.850;2023-08-20T05:55:18;165.37;;;121.80;;
44862;SDS011;30597;49.628;10.850;2023-08-20T05:57:44;161.07;;;115.97;;
44862;SDS011;30597;49.628;10.850;2023-08-20T06:00:10;152.60;;;119.10;;
44862;SDS011;30597;49.628;10.850;2023-08-20T06:02:36;151.53;;;119.47;;
44862;SDS011;30597;49.628;10.850;2023-08-20T06:05:02;162.70;;;120.07;;
44862;SDS011;30597;49.628;10.850;2023-08-20T06:07:31;164.50;;;118.80;;
44862;SDS011;30597;49.628;10.850;2023-08-20T06:09:57;161.43;;;115.73;;
44862;SDS011;30597;49.628;10.850;2023-08-20T06:12:23;167.00;;;115.10;;
44862;SDS011;30597;49.628;10.850;2023-08-20T06:14:48;153.23;;;116.20;;
44862;SDS011;30597;49.628;10.850;2023-08-20T06:17:14;151.70;;;113.80;;
44862;SDS011;30597;49.628;10.850;2023-08-20T06:19:41;152.10;;;113.90;;
44862;SDS011;30597;49.628;10.850;2023-08-20T06:22:06;151.20;;;110.83;;
44862;SDS011;30597;49.628;10.850;2023-08-20T06:24:32;153.00;;;111.00;;
44862;SDS011;30597;49.628;10.850;2023-08-20T06:26:58;146.33;;;109.77;;
44862;SDS011;30597;49.628;10.850;2023-08-20T06:29:23;144.90;;;106.47;;
44862;SDS011;30597;49.628;10.850;2023-08-20T06:31:49;148.13;;;109.13;;
44862;SDS011;30597;49.628;10.850;2023-08-20T06:34:15;145.23;;;106.57;;
44862;SDS011;30597;49.628;10.850;2023-08-20T06:36:41;146.23;;;108.63;;
44862;SDS011;30597;49.628;10.850;2023-08-20T06:39:07;139.57;;;105.27;;
44862;SDS011;30597;49.628;10.850;2023-08-20T06:41:33;144.20;;;107.27;;
44862;SDS011;30597;49.628;10.850;2023-08-20T06:43:59;142.47;;;107.63;;
44862;SDS011;30597;49.628;10.850;2023-08-20T06:46:24;137.77;;;101.20;;
44862;SDS011;30597;49.628;10.850;2023-08-20T06:48:50;127.17;;;94.70;;
44862;SDS011;30597;49.628;10.850;2023-08-20T06:51:18;129.67;;;102.40;;
44862;SDS011;30597;49.628;10.850;2023-08-20T06:53:45;122.83;;;95.90;;
44862;SDS011;30597;49.628;10.850;2023-08-20T06:56:11;123.97;;;97.53;;
44862;SDS011;30597;49.628;10.850;2023-08-20T06:58:37;123.63;;;98.80;;
44862;SDS011;30597;49.628;10.850;2023-08-20T07:01:04;130.00;;;96.07;;
44862;SDS011;30597;49.628;10.850;2023-08-20T07:03:42;133.40;;;99.57;;
44862;SDS011;30597;49.628;10.850;2023-08-20T07:06:09;132.03;;;99.67;;
44862;SDS011;30597;49.628;10.850;2023-08-20T07:08:35;123.27;;;92.67;;
44862;SDS011;30597;49.628;10.850;2023-08-20T07:11:03;125.77;;;98.30;;
44862;SDS011;30597;49.628;10.850;2023-08-20T07:13:29;119.43;;;92.57;;
44862;SDS011;30597;49.628;10.850;2023-08-20T07:15:54;112.80;;;90.80;;
44862;SDS011;30597;49.628;10.850;2023-08-20T07:18:20;122.47;;;93.10;;
44862;SDS011;30597;49.628;10.850;2023-08-20T07:20:45;120.17;;;95.07;;
44862;SDS011;30597;49.628;10.850;2023-08-20T07:23:11;120.87;;;92.67;;
44862;SDS011;30597;49.628;10.850;2023-08-20T07:25:37;118.53;;;93.93;;
44862;SDS011;30597;49.628;10.850;2023-08-20T07:28:04;124.17;;;92.93;;
44862;SDS011;30597;49.628;10.850;2023-08-20T07:30:31;125.63;;;93.07;;
44862;SDS011;30597;49.628;10.850;2023-08-20T07:32:57;115.03;;;90.70;;
44862;SDS011;30597;49.628;10.850;2023-08-20T07:35:22;122.00;;;91.30;;
44862;SDS011;30597;49.628;10.850;2023-08-20T07:37:48;113.80;;;90.97;;
44862;SDS011;30597;49.628;10.850;2023-08-20T07:40:14;115.10;;;89.97;;
44862;SDS011;30597;49.628;10.850;2023-08-20T07:42:40;113.27;;;90.97;;
44862;SDS011;30597;49.628;10.850;2023-08-20T07:45:06;111.67;;;89.13;;
44862;SDS011;30597;49.628;10.850;2023-08-20T07:47:32;115.83;;;90.73;;
44862;SDS011;30597;49.628;10.850;2023-08-20T07:50:01;118.93;;;89.57;;
44862;SDS011;30597;49.628;10.850;2023-08-20T07:52:27;107.70;;;87.10;;
44862;SDS011;30597;49.628;10.850;2023-08-20T07:54:53;113.70;;;89.57;;
44862;SDS011;30597;49.628;10.850;2023-08-20T07:57:18;109.67;;;86.80;;
44862;SDS011;30597;49.628;10.850;2023-08-20T07:59:44;105.83;;;89.07;;
44862;SDS011;30597;49.628;10.850;2023-08-20T08:02:10;113.10;;;89.87;;
44862;SDS011;30597;49.628;10.850;2023-08-20T08:04:35;107.30;;;85.93;;
44862;SDS011;30597;49.628;10.850;2023-08-20T08:07:01;109.77;;;87.50;;
44862;SDS011;30597;49.628;10.850;2023-08-20T08:09:28;106.23;;;83.87;;
44862;SDS011;30597;49.628;10.850;2023-08-20T08:11:57;104.00;;;87.23;;
44862;SDS011;30597;49.628;10.850;2023-08-20T08:14:24;107.27;;;86.57;;
44862;SDS011;30597;49.628;10.850;2023-08-20T08:16:50;106.60;;;86.47;;
44862;SDS011;30597;49.628;10.850;2023-08-20T08:19:16;108.87;;;85.43;;
44862;SDS011;30597;49.628;10.850;2023-08-20T08:21:43;113.20;;;87.00;;
44862;SDS011;30597;49.628;10.850;2023-08-20T08:24:09;102.57;;;83.30;;
44862;SDS011;30597;49.628;10.850;2023-08-20T08:26:38;104.80;;;83.77;;
44862;SDS011;30597;49.628;10.850;2023-08-20T08:29:05;108.03;;;83.60;;
44862;SDS011;30597;49.628;10.850;2023-08-20T08:31:31;102.10;;;86.13;;
44862;SDS011;30597;49.628;10.850;2023-08-20T08:33:57;111.80;;;87.70;;
44862;SDS011;30597;49.628;10.850;2023-08-20T08:36:23;107.27;;;83.07;;
44862;SDS011;30597;49.628;10.850;2023-08-20T08:38:52;109.43;;;83.83;;
44862;SDS011;30597;49.628;10.850;2023-08-20T08:41:18;103.23;;;86.50;;
44862;SDS011;30597;49.628;10.850;2023-08-20T08:43:48;103.40;;;80.47;;
44862;SDS011;30597;49.628;10.850;2023-08-20T08:46:14;102.00;;;82.07;;
44862;SDS011;30597;49.628;10.850;2023-08-20T08:48:41;100.43;;;79.60;;
44862;SDS011;30597;49.628;10.850;2023-08-20T08:51:08;97.10;;;80.60;;
44862;SDS011;30597;49.628;10.850;2023-08-20T08:53:34;105.97;;;88.03;;
44862;SDS011;30597;49.628;10.850;2023-08-20T08:56:00;99.33;;;82.63;;
44862;SDS011;30597;49.628;10.850;2023-08-20T08:58:27;97.23;;;80.27;;
44862;SDS011;30597;49.628;10.850;2023-08-20T09:00:53;102.93;;;81.17;;
44862;SDS011;30597;49.628;10.850;2023-08-20T09:03:18;96.53;;;80.37;;
44862;SDS011;30597;49.628;10.850;2023-08-20T09:05:48;99.67;;;85.10;;
44862;SDS011;30597;49.628;10.850;2023-08-20T09:08:21;105.83;;;89.93;;
44862;SDS011;30597;49.628;10.850;2023-08-20T09:10:55;108.20;;;87.33;;
44862;SDS011;30597;49.628;10.850;2023-08-20T09:13:35;105.27;;;84.97;;
44862;SDS011;30597;49.628;10.850;2023-08-20T09:16:09;100.17;;;84.23;;
44862;SDS011;30597;49.628;10.850;2023-08-20T09:18:39;95.70;;;81.30;;
44862;SDS011;30597;49.628;10.850;2023-08-20T09:21:06;102.23;;;84.07;;
44862;SDS011;30597;49.628;10.850;2023-08-20T09:23:33;97.43;;;81.20;;
44862;SDS011;30597;49.628;10.850;2023-08-20T09:25:59;100.33;;;82.13;;
44862;SDS011;30597;49.628;10.850;2023-08-20T09:28:28;97.50;;;82.03;;
44862;SDS011;30597;49.628;10.850;2023-08-20T09:30:57;101.73;;;81.57;;
44862;SDS011;30597;49.628;10.850;2023-08-20T09:33:26;93.97;;;81.27;;
44862;SDS011;30597;49.628;10.850;2023-08-20T09:35:53;98.97;;;80.13;;
44862;SDS011;30597;49.628;10.850;2023-08-20T09:38:19;92.07;;;80.10;;
44862;SDS011;30597;49.628;10.850;2023-08-20T09:40:47;97.53;;;79.20;;
44862;SDS011;30597;49.628;10.850;2023-08-20T09:43:15;98.20;;;79.80;;
44862;SDS011;30597;49.628;10.850;2023-08-20T09:45:42;96.20;;;78.67;;
44862;SDS011;30597;49.628;10.850;2023-08-20T09:48:08;102.50;;;85.03;;
44862;SDS011;30597;49.628;10.850;2023-08-20T09:50:35;95.03;;;80.63;;
44862;SDS011;30597;49.628;10.850;2023-08-20T09:53:06;99.33;;;84.03;;
44862;SDS011;30597;49.628;10.850;2023-08-20T09:55:38;92.50;;;76.53;;
44862;SDS011;30597;49.628;10.850;2023-08-20T09:58:06;92.10;;;77.83;;
44862;SDS011;30597;49.628;10.850;2023-08-20T10:00:32;87.77;;;75.60;;
44862;SDS011;30597;49.628;10.850;2023-08-20T10:02:58;86.97;;;72.90;;
44862;SDS011;30597;49.628;10.850;2023-08-20T10:05:24;93.50;;;79.37;;
44862;SDS011;30597;49.628;10.850;2023-08-20T10:07:50;94.97;;;77.67;;
44862;SDS011;30597;49.628;10.850;2023-08-20T10:10:17;91.07;;;77.40;;
44862;SDS011;30597;49.628;10.850;2023-08-20T10:12:43;86.57;;;74.53;;
44862;SDS011;30597;49.628;10.850;2023-08-20T10:15:10;89.03;;;76.17;;
44862;SDS011;30597;49.628;10.850;2023-08-20T10:17:40;89.40;;;74.87;;
44862;SDS011;30597;49.628;10.850;2023-08-20T10:20:07;93.00;;;74.50;;
44862;SDS011;30597;49.628;10.850;2023-08-20T10:22:35;84.83;;;74.40;;
44862;SDS011;30597;49.628;10.850;2023-08-20T10:27:33;84.77;;;73.33;;
44862;SDS011;30597;49.628;10.850;2023-08-20T10:30:00;96.23;;;77.60;;
44862;SDS011;30597;49.628;10.850;2023-08-20T10:32:44;108.07;;;90.47;;
44862;SDS011;30597;49.628;10.850;2023-08-20T10:35:25;110.83;;;95.80;;
44862;SDS011;30597;49.628;10.850;2023-08-20T10:40:48;103.00;;;90.77;;
44862;SDS011;30597;49.628;10.850;2023-08-20T10:48:33;99.67;;;86.00;;
44862;SDS011;30597;49.628;10.850;2023-08-20T10:53:40;101.03;;;89.67;;
44862;SDS011;30597;49.628;10.850;2023-08-20T10:56:14;93.90;;;82.13;;
44862;SDS011;30597;49.628;10.850;2023-08-20T10:58:42;97.27;;;82.67;;
44862;SDS011;30597;49.628;10.850;2023-08-20T11:01:19;92.30;;;82.43;;
44862;SDS011;30597;49.628;10.850;2023-08-20T11:03:46;93.23;;;82.40;;
44862;SDS011;30597;49.628;10.850;2023-08-20T11:06:13;94.67;;;82.07;;
44862;SDS011;30597;49.628;10.850;2023-08-20T11:08:40;96.93;;;85.40;;
44862;SDS011;30597;49.628;10.850;2023-08-20T11:11:07;89.63;;;79.20;;
44862;SDS011;30597;49.628;10.850;2023-08-20T11:13:33;91.27;;;79.00;;
44862;SDS011;30597;49.628;10.850;2023-08-20T11:16:01;90.63;;;77.70;;
44862;SDS011;30597;49.628;10.850;2023-08-20T11:18:27;87.97;;;77.37;;
44862;SDS011;30597;49.628;10.850;2023-08-20T11:20:53;87.83;;;75.57;;
44862;SDS011;30597;49.628;10.850;2023-08-20T11:23:20;86.47;;;77.20;;
44862;SDS011;30597;49.628;10.850;2023-08-20T11:25:46;88.63;;;76.97;;
44862;SDS011;30597;49.628;10.850;2023-08-20T11:28:12;88.87;;;79.20;;
44862;SDS011;30597;49.628;10.850;2023-08-20T11:30:38;86.10;;;76.53;;
44862;SDS011;30597;49.628;10.850;2023-08-20T11:33:03;87.40;;;75.63;;
44862;SDS011;30597;49.628;10.850;2023-08-20T11:35:30;90.97;;;80.80;;
44862;SDS011;30597;49.628;10.850;2023-08-20T11:37:57;88.10;;;78.53;;
44862;SDS011;30597;49.628;10.850;2023-08-20T11:40:23;157.20;;;140.03;;
44862;SDS011;30597;49.628;10.850;2023-08-20T11:42:49;131.57;;;115.87;;
44862;SDS011;30597;49.628;10.850;2023-08-20T11:45:15;130.67;;;111.17;;
44862;SDS011;30597;49.628;10.850;2023-08-20T11:47:41;121.17;;;107.93;;
44862;SDS011;30597;49.628;10.850;2023-08-20T11:50:07;118.27;;;105.27;;
44862;SDS011;30597;49.628;10.850;2023-08-20T11:52:35;116.87;;;103.57;;
44862;SDS011;30597;49.628;10.850;2023-08-20T11:55:01;119.57;;;102.27;;
44862;SDS011;30597;49.628;10.850;2023-08-20T11:57:28;116.53;;;103.80;;
44862;SDS011;30597;49.628;10.850;2023-08-20T11:59:55;112.77;;;100.37;;
44862;SDS011;30597;49.628;10.850;2023-08-20T12:02:27;114.00;;;101.50;;
44862;SDS011;30597;49.628;10.850;2023-08-20T12:04:55;125.43;;;106.63;;
44862;SDS011;30597;49.628;10.850;2023-08-20T12:07:24;117.73;;;99.27;;
44862;SDS011;30597;49.628;10.850;2023-08-20T12:09:52;115.40;;;102.77;;
44862;SDS011;30597;49.628;10.850;2023-08-20T12:12:19;117.80;;;101.37;;
44862;SDS011;30597;49.628;10.850;2023-08-20T12:14:48;112.43;;;100.07;;
44862;SDS011;30597;49.628;10.850;2023-08-20T12:17:20;115.50;;;101.33;;
44862;SDS011;30597;49.628;10.850;2023-08-20T12:19:46;122.30;;;106.77;;
44862;SDS011;30597;49.628;10.850;2023-08-20T12:22:11;114.47;;;100.67;;
44862;SDS011;30597;49.628;10.850;2023-08-20T12:24:38;115.70;;;103.17;;
44862;SDS011;30597;49.628;10.850;2023-08-20T12:27:03;117.97;;;102.07;;
44862;SDS011;30597;49.628;10.850;2023-08-20T12:29:29;116.40;;;103.70;;
44862;SDS011;30597;49.628;10.850;2023-08-20T12:31:55;116.90;;;100.63;;
44862;SDS011;30597;49.628;10.850;2023-08-20T12:34:20;116.23;;;100.33;;
44862;SDS011;30597;49.628;10.850;2023-08-20T12:36:46;114.27;;;101.80;;
44862;SDS011;30597;49.628;10.850;2023-08-20T12:39:13;109.73;;;97.80;;
44862;SDS011;30597;49.628;10.850;2023-08-20T12:41:39;115.03;;;99.97;;
44862;SDS011;30597;49.628;10.850;2023-08-20T12:44:05;116.27;;;103.97;;
44862;SDS011;30597;49.628;10.850;2023-08-20T12:46:30;111.67;;;98.07;;
44862;SDS011;30597;49.628;10.850;2023-08-20T12:48:56;110.10;;;96.20;;
44862;SDS011;30597;49.628;10.850;2023-08-20T12:51:22;111.97;;;100.07;;
44862;SDS011;30597;49.628;10.850;2023-08-20T12:53:47;103.77;;;92.43;;
44862;SDS011;30597;49.628;10.850;2023-08-20T12:56:13;110.00;;;97.90;;
44862;SDS011;30597;49.628;10.850;2023-08-20T12:58:40;106.87;;;95.27;;
44862;SDS011;30597;49.628;10.850;2023-08-20T13:01:06;109.63;;;97.63;;
44862;SDS011;30597;49.628;10.850;2023-08-20T13:03:32;107.40;;;96.00;;
44862;SDS011;30597;49.628;10.850;2023-08-20T13:05:58;118.00;;;99.40;;
44862;SDS011;30597;49.628;10.850;2023-08-20T13:08:24;103.57;;;92.70;;
44862;SDS011;30597;49.628;10.850;2023-08-20T13:10:53;103.57;;;91.03;;
44862;SDS011;30597;49.628;10.850;2023-08-20T13:13:20;99.73;;;89.13;;
44862;SDS011;30597;49.628;10.850;2023-08-20T13:15:46;107.47;;;95.67;;
44862;SDS011;30597;49.628;10.850;2023-08-20T13:18:13;100.53;;;89.90;;
44862;SDS011;30597;49.628;10.850;2023-08-20T13:20:39;99.47;;;88.60;;
44862;SDS011;30597;49.628;10.850;2023-08-20T13:23:05;103.43;;;91.10;;
44862;SDS011;30597;49.628;10.850;2023-08-20T13:25:30;119.37;;;106.97;;
44862;SDS011;30597;49.628;10.850;2023-08-20T13:27:56;135.63;;;121.17;;
44862;SDS011;30597;49.628;10.850;2023-08-20T13:30:21;148.27;;;132.43;;
44862;SDS011;30597;49.628;10.850;2023-08-20T13:32:47;139.10;;;124.10;;
44862;SDS011;30597;49.628;10.850;2023-08-20T13:35:14;137.97;;;122.77;;
44862;SDS011;30597;49.628;10.850;2023-08-20T13:37:40;138.60;;;122.90;;
44862;SDS011;30597;49.628;10.850;2023-08-20T13:40:05;139.70;;;122.20;;
44862;SDS011;30597;49.628;10.850;2023-08-20T13:42:34;132.47;;;118.13;;
44862;SDS011;30597;49.628;10.850;2023-08-20T13:44:59;132.43;;;115.73;;
44862;SDS011;30597;49.628;10.850;2023-08-20T13:47:25;130.67;;;115.60;;
44862;SDS011;30597;49.628;10.850;2023-08-20T13:49:51;130.17;;;116.03;;
44862;SDS011;30597;49.628;10.850;2023-08-20T13:52:16;127.73;;;113.97;;
44862;SDS011;30597;49.628;10.850;2023-08-20T13:54:42;126.33;;;112.80;;
44862;SDS011;30597;49.628;10.850;2023-08-20T13:57:07;123.67;;;110.47;;
44862;SDS011;30597;49.628;10.850;2023-08-20T13:59:33;123.67;;;110.13;;
44862;SDS011;30597;49.628;10.850;2023-08-20T14:01:58;130.50;;;116.43;;
44862;SDS011;30597;49.628;10.850;2023-08-20T14:04:24;128.13;;;114.40;;
44862;SDS011;30597;49.628;10.850;2023-08-20T14:06:50;130.97;;;116.57;;
44862;SDS011;30597;49.628;10.850;2023-08-20T14:09:16;128.80;;;114.90;;
44862;SDS011;30597;49.628;10.850;2023-08-20T14:11:45;129.03;;;115.30;;